sensor_id;sensor_type;location;lat;lon;timestamp;temperature;humidity
79494;SHT31;68951;53.130;18.104;2024-03-02T00:00:20;10.43;74.40
79494;SHT31;68951;53.130;18.104;2024-03-02T00:03:08;10.38;74.41
79494;SHT31;68951;53.130;18.104;2024-03-02T00:05:40;10.32;74.50
79494;SHT31;68951;53.130;18.104;2024-03-02T00:08:07;10.27;74.56
79494;SHT31;68951;53.130;18.104;2024-03-02T00:10:37;10.25;74.61
79494;SHT31;68951;53.130;18.104;2024-03-02T00:13:06;10.26;74.69
79494;SHT31;68951;53.130;18.104;2024-03-02T00:18:21;10.27;74.80
79494;SHT31;68951;53.130;18.104;2024-03-02T00:20:53;10.26;74.89
79494;SHT31;68951;53.130;18.104;2024-03-02T00:23:22;10.25;74.90
79494;SHT31;68951;53.130;18.104;2024-03-02T00:25:52;10.23;74.96
79494;SHT31;68951;53.130;18.104;2024-03-02T00:28:34;10.22;75.01
79494;SHT31;68951;53.130;18.104;2024-03-02T00:33:31;10.25;75.10
79494;SHT31;68951;53.130;18.104;2024-03-02T00:36:01;10.25;75.15
79494;SHT31;68951;53.130;18.104;2024-03-02T00:38:33;10.23;75.20
79494;SHT31;68951;53.130;18.104;2024-03-02T00:41:04;10.24;75.22
79494;SHT31;68951;53.130;18.104;2024-03-02T00:46:17;10.19;75.31
79494;SHT31;68951;53.130;18.104;2024-03-02T00:48:51;10.19;75.38
79494;SHT31;68951;53.130;18.104;2024-03-02T00:51:23;10.16;75.41
79494;SHT31;68951;53.130;18.104;2024-03-02T00:53:53;10.14;75.48
79494;SHT31;68951;53.130;18.104;2024-03-02T00:56:23;10.10;75.53
79494;SHT31;68951;53.130;18.104;2024-03-02T00:58:51;10.11;75.60
79494;SHT31;68951;53.130;18.104;2024-03-02T01:01:19;10.09;75.66
79494;SHT31;68951;53.130;18.104;2024-03-02T01:03:46;10.08;75.71
79494;SHT31;68951;53.130;18.104;2024-03-02T01:06:13;10.08;75.78
79494;SHT31;68951;53.130;18.104;2024-03-02T01:08:39;10.07;75.80
79494;SHT31;68951;53.130;18.104;2024-03-02T01:11:06;10.07;75.84
79494;SHT31;68951;53.130;18.104;2024-03-02T01:13:33;10.07;75.90
79494;SHT31;68951;53.130;18.104;2024-03-02T01:16:00;10.06;75.90
79494;SHT31;68951;53.130;18.104;2024-03-02T01:18:28;10.06;75.99
79494;SHT31;68951;53.130;18.104;2024-03-02T01:20:55;10.06;76.00
79494;SHT31;68951;53.130;18.104;2024-03-02T01:23:22;10.05;76.01
79494;SHT31;68951;53.130;18.104;2024-03-02T01:25:50;10.05;76.06
79494;SHT31;68951;53.130;18.104;2024-03-02T01:28:18;10.05;76.10
79494;SHT31;68951;53.130;18.104;2024-03-02T01:30:47;10.03;76.10
79494;SHT31;68951;53.130;18.104;2024-03-02T01:33:14;10.02;76.10
79494;SHT31;68951;53.130;18.104;2024-03-02T01:35:45;9.99;76.10
79494;SHT31;68951;53.130;18.104;2024-03-02T01:38:12;9.98;76.10
79494;SHT31;68951;53.130;18.104;2024-03-02T01:40:39;9.96;76.13
79494;SHT31;68951;53.130;18.104;2024-03-02T01:43:06;9.96;76.14
79494;SHT31;68951;53.130;18.104;2024-03-02T01:45:34;9.93;76.18
79494;SHT31;68951;53.130;18.104;2024-03-02T01:48:02;9.88;76.20
79494;SHT31;68951;53.130;18.104;2024-03-02T01:50:31;9.88;76.20
79494;SHT31;68951;53.130;18.104;2024-03-02T01:53:00;9.86;76.20
79494;SHT31;68951;53.130;18.104;2024-03-02T01:55:29;9.85;76.25
79494;SHT31;68951;53.130;18.104;2024-03-02T01:57:56;9.84;76.29
79494;SHT31;68951;53.130;18.104;2024-03-02T02:00:24;9.83;76.30
79494;SHT31;68951;53.130;18.104;2024-03-02T02:02:52;9.83;76.30
79494;SHT31;68951;53.130;18.104;2024-03-02T02:05:20;9.81;76.30
79494;SHT31;68951;53.130;18.104;2024-03-02T02:07:47;9.78;76.33
79494;SHT31;68951;53.130;18.104;2024-03-02T02:10:14;9.76;76.39
79494;SHT31;68951;53.130;18.104;2024-03-02T02:12:41;9.75;76.40
79494;SHT31;68951;53.130;18.104;2024-03-02T02:15:27;9.74;76.40
79494;SHT31;68951;53.130;18.104;2024-03-02T02:17:56;9.73;76.40
79494;SHT31;68951;53.130;18.104;2024-03-02T02:20:25;9.73;76.40
79494;SHT31;68951;53.130;18.104;2024-03-02T02:23:02;9.69;76.40
79494;SHT31;68951;53.130;18.104;2024-03-02T02:25:31;9.66;76.40
79494;SHT31;68951;53.130;18.104;2024-03-02T02:27:58;9.60;76.40
79494;SHT31;68951;53.130;18.104;2024-03-02T02:32:57;9.53;76.40
79494;SHT31;68951;53.130;18.104;2024-03-02T02:35:25;9.49;76.40
79494;SHT31;68951;53.130;18.104;2024-03-02T02:37:53;9.47;76.42
79494;SHT31;68951;53.130;18.104;2024-03-02T02:40:21;9.45;76.48
79494;SHT31;68951;53.130;18.104;2024-03-02T02:42:48;9.41;76.50
79494;SHT31;68951;53.130;18.104;2024-03-02T02:45:15;9.39;76.52
79494;SHT31;68951;53.130;18.104;2024-03-02T02:47:43;9.33;76.56
79494;SHT31;68951;53.130;18.104;2024-03-02T02:50:11;9.30;76.59
79494;SHT31;68951;53.130;18.104;2024-03-02T02:52:39;9.27;76.60
79494;SHT31;68951;53.130;18.104;2024-03-02T02:55:11;9.24;76.62
79494;SHT31;68951;53.130;18.104;2024-03-02T02:57:41;9.20;76.69
79494;SHT31;68951;53.130;18.104;2024-03-02T03:00:12;9.17;76.69
79494;SHT31;68951;53.130;18.104;2024-03-02T03:02:42;9.14;76.70
79494;SHT31;68951;53.130;18.104;2024-03-02T03:05:10;9.09;76.72
79494;SHT31;68951;53.130;18.104;2024-03-02T03:07:40;9.05;76.74
79494;SHT31;68951;53.130;18.104;2024-03-02T03:10:08;9.03;76.80
79494;SHT31;68951;53.130;18.104;2024-03-02T03:12:35;9.00;76.80
79494;SHT31;68951;53.130;18.104;2024-03-02T03:15:03;8.96;76.86
79494;SHT31;68951;53.130;18.104;2024-03-02T03:17:34;8.96;76.91
79494;SHT31;68951;53.130;18.104;2024-03-02T03:20:02;8.95;76.94
79494;SHT31;68951;53.130;18.104;2024-03-02T03:22:30;8.93;77.00
79494;SHT31;68951;53.130;18.104;2024-03-02T03:25:01;8.91;77.00
79494;SHT31;68951;53.130;18.104;2024-03-02T03:27:29;8.91;77.07
79494;SHT31;68951;53.130;18.104;2024-03-02T03:29:56;8.90;77.10
79494;SHT31;68951;53.130;18.104;2024-03-02T03:32:23;8.91;77.14
79494;SHT31;68951;53.130;18.104;2024-03-02T03:34:51;8.93;77.19
79494;SHT31;68951;53.130;18.104;2024-03-02T03:37:17;8.94;77.20
79494;SHT31;68951;53.130;18.104;2024-03-02T03:39:44;8.95;77.22
79494;SHT31;68951;53.130;18.104;2024-03-02T03:42:11;8.95;77.30
79494;SHT31;68951;53.130;18.104;2024-03-02T03:44:39;8.96;77.30
79494;SHT31;68951;53.130;18.104;2024-03-02T03:47:08;8.96;77.31
79494;SHT31;68951;53.130;18.104;2024-03-02T03:49:35;8.97;77.31
79494;SHT31;68951;53.130;18.104;2024-03-02T03:52:01;8.99;77.36
79494;SHT31;68951;53.130;18.104;2024-03-02T03:54:28;9.00;77.37
79494;SHT31;68951;53.130;18.104;2024-03-02T03:56:55;8.99;77.34
79494;SHT31;68951;53.130;18.104;2024-03-02T03:59:22;8.98;77.34
79494;SHT31;68951;53.130;18.104;2024-03-02T04:01:50;8.99;77.37
79494;SHT31;68951;53.130;18.104;2024-03-02T04:04:16;8.99;77.39
79494;SHT31;68951;53.130;18.104;2024-03-02T04:06:43;8.96;77.37
79494;SHT31;68951;53.130;18.104;2024-03-02T04:09:10;8.94;77.37
79494;SHT31;68951;53.130;18.104;2024-03-02T04:11:37;8.97;77.39
79494;SHT31;68951;53.130;18.104;2024-03-02T04:14:04;8.99;77.37
79494;SHT31;68951;53.130;18.104;2024-03-02T04:16:32;9.00;77.31
79494;SHT31;68951;53.130;18.104;2024-03-02T04:18:59;8.97;77.32
79494;SHT31;68951;53.130;18.104;2024-03-02T04:21:26;9.00;77.35
79494;SHT31;68951;53.130;18.104;2024-03-02T04:23:53;9.03;77.38
79494;SHT31;68951;53.130;18.104;2024-03-02T04:26:24;9.06;77.32
79494;SHT31;68951;53.130;18.104;2024-03-02T04:28:52;9.08;77.30
79494;SHT31;68951;53.130;18.104;2024-03-02T04:31:21;9.11;77.30
79494;SHT31;68951;53.130;18.104;2024-03-02T04:33:48;9.12;77.27
79494;SHT31;68951;53.130;18.104;2024-03-02T04:36:15;9.11;77.22
79494;SHT31;68951;53.130;18.104;2024-03-02T04:38:42;9.12;77.20
79494;SHT31;68951;53.130;18.104;2024-03-02T04:41:09;9.10;77.20
79494;SHT31;68951;53.130;18.104;2024-03-02T04:43:35;9.10;77.20
79494;SHT31;68951;53.130;18.104;2024-03-02T04:46:02;9.13;77.20
79494;SHT31;68951;53.130;18.104;2024-03-02T04:48:29;9.14;77.20
79494;SHT31;68951;53.130;18.104;2024-03-02T04:50:56;9.15;77.19
79494;SHT31;68951;53.130;18.104;2024-03-02T04:53:23;9.15;77.12
79494;SHT31;68951;53.130;18.104;2024-03-02T04:55:50;9.19;77.14
79494;SHT31;68951;53.130;18.104;2024-03-02T04:58:35;9.19;77.10
79494;SHT31;68951;53.130;18.104;2024-03-02T05:01:01;9.17;77.10
79494;SHT31;68951;53.130;18.104;2024-03-02T05:03:28;9.19;77.10
79494;SHT31;68951;53.130;18.104;2024-03-02T05:05:55;9.21;77.10
79494;SHT31;68951;53.130;18.104;2024-03-02T05:08:22;9.23;77.06
79494;SHT31;68951;53.130;18.104;2024-03-02T05:10:49;9.21;77.00
79494;SHT31;68951;53.130;18.104;2024-03-02T05:13:16;9.25;77.00
79494;SHT31;68951;53.130;18.104;2024-03-02T05:15:43;9.27;77.00
79494;SHT31;68951;53.130;18.104;2024-03-02T05:18:10;9.27;76.98
79494;SHT31;68951;53.130;18.104;2024-03-02T05:20:37;9.27;76.92
79494;SHT31;68951;53.130;18.104;2024-03-02T05:23:04;9.29;76.90
79494;SHT31;68951;53.130;18.104;2024-03-02T05:25:31;9.30;76.90
79494;SHT31;68951;53.130;18.104;2024-03-02T05:27:58;9.32;76.90
79494;SHT31;68951;53.130;18.104;2024-03-02T05:30:25;9.34;76.89
79494;SHT31;68951;53.130;18.104;2024-03-02T05:32:52;9.34;76.86
79494;SHT31;68951;53.130;18.104;2024-03-02T05:35:19;9.34;76.81
79494;SHT31;68951;53.130;18.104;2024-03-02T05:37:46;9.35;76.80
79494;SHT31;68951;53.130;18.104;2024-03-02T05:40:13;9.36;76.80
79494;SHT31;68951;53.130;18.104;2024-03-02T05:42:40;9.38;76.78
79494;SHT31;68951;53.130;18.104;2024-03-02T05:45:07;9.38;76.72
79494;SHT31;68951;53.130;18.104;2024-03-02T05:47:34;9.40;76.70
79494;SHT31;68951;53.130;18.104;2024-03-02T05:50:01;9.40;76.70
79494;SHT31;68951;53.130;18.104;2024-03-02T05:52:30;9.35;76.69
79494;SHT31;68951;53.130;18.104;2024-03-02T05:54:57;9.34;76.70
79494;SHT31;68951;53.130;18.104;2024-03-02T05:57:23;9.36;76.70
79494;SHT31;68951;53.130;18.104;2024-03-02T06:00:09;9.36;76.70
79494;SHT31;68951;53.130;18.104;2024-03-02T06:02:40;9.40;76.70
79494;SHT31;68951;53.130;18.104;2024-03-02T06:05:09;9.40;76.69
79494;SHT31;68951;53.130;18.104;2024-03-02T06:07:36;9.43;76.66
79494;SHT31;68951;53.130;18.104;2024-03-02T06:10:03;9.44;76.61
79494;SHT31;68951;53.130;18.104;2024-03-02T06:12:30;9.45;76.61
79494;SHT31;68951;53.130;18.104;2024-03-02T06:14:58;9.47;76.59
79494;SHT31;68951;53.130;18.104;2024-03-02T06:17:25;9.46;76.59
79494;SHT31;68951;53.130;18.104;2024-03-02T06:19:52;9.47;76.53
79494;SHT31;68951;53.130;18.104;2024-03-02T06:22:19;9.48;76.53
79494;SHT31;68951;53.130;18.104;2024-03-02T06:24:45;9.49;76.50
79494;SHT31;68951;53.130;18.104;2024-03-02T06:27:12;9.52;76.51
79494;SHT31;68951;53.130;18.104;2024-03-02T06:29:39;9.55;76.50
79494;SHT31;68951;53.130;18.104;2024-03-02T06:32:06;9.57;76.50
79494;SHT31;68951;53.130;18.104;2024-03-02T06:34:33;9.60;76.49
79494;SHT31;68951;53.130;18.104;2024-03-02T06:36:59;9.62;76.40
79494;SHT31;68951;53.130;18.104;2024-03-02T06:39:26;9.63;76.41
79494;SHT31;68951;53.130;18.104;2024-03-02T06:41:53;9.64;76.40
79494;SHT31;68951;53.130;18.104;2024-03-02T06:44:20;9.66;76.39
79494;SHT31;68951;53.130;18.104;2024-03-02T06:46:47;9.68;76.34
79494;SHT31;68951;53.130;18.104;2024-03-02T06:49:14;9.71;76.30
79494;SHT31;68951;53.130;18.104;2024-03-02T06:51:41;9.71;76.30
79494;SHT31;68951;53.130;18.104;2024-03-02T06:54:08;9.70;76.27
79494;SHT31;68951;53.130;18.104;2024-03-02T06:56:35;9.73;76.24
79494;SHT31;68951;53.130;18.104;2024-03-02T06:59:02;9.74;76.20
79494;SHT31;68951;53.130;18.104;2024-03-02T07:01:29;9.78;76.20
79494;SHT31;68951;53.130;18.104;2024-03-02T07:03:56;9.80;76.17
79494;SHT31;68951;53.130;18.104;2024-03-02T07:06:23;9.80;76.10
79494;SHT31;68951;53.130;18.104;2024-03-02T07:08:49;9.81;76.10
79494;SHT31;68951;53.130;18.104;2024-03-02T07:11:16;9.84;76.07
79494;SHT31;68951;53.130;18.104;2024-03-02T07:13:43;9.87;76.02
79494;SHT31;68951;53.130;18.104;2024-03-02T07:16:10;9.87;76.00
79494;SHT31;68951;53.130;18.104;2024-03-02T07:18:36;9.88;76.00
79494;SHT31;68951;53.130;18.104;2024-03-02T07:21:07;9.92;75.98
79494;SHT31;68951;53.130;18.104;2024-03-02T07:23:34;9.97;75.92
79494;SHT31;68951;53.130;18.104;2024-03-02T07:26:01;10.02;75.89
79494;SHT31;68951;53.130;18.104;2024-03-02T07:28:30;10.03;75.82
79494;SHT31;68951;53.130;18.104;2024-03-02T07:31:01;10.09;75.80
79494;SHT31;68951;53.130;18.104;2024-03-02T07:33:31;10.15;75.77
79494;SHT31;68951;53.130;18.104;2024-03-02T07:35:58;10.19;75.70
79494;SHT31;68951;53.130;18.104;2024-03-02T07:38:28;10.22;75.61
79494;SHT31;68951;53.130;18.104;2024-03-02T07:40:55;10.25;75.53
79494;SHT31;68951;53.130;18.104;2024-03-02T07:43:22;10.28;75.49
79494;SHT31;68951;53.130;18.104;2024-03-02T07:45:49;10.30;75.40
79494;SHT31;68951;53.130;18.104;2024-03-02T07:48:16;10.37;75.38
79494;SHT31;68951;53.130;18.104;2024-03-02T07:50:43;10.47;75.30
79494;SHT31;68951;53.130;18.104;2024-03-02T07:53:10;10.56;75.22
79494;SHT31;68951;53.130;18.104;2024-03-02T07:55:37;10.70;75.12
79494;SHT31;68951;53.130;18.104;2024-03-02T07:58:04;10.83;75.06
79494;SHT31;68951;53.130;18.104;2024-03-02T08:00:32;11.00;74.95
79494;SHT31;68951;53.130;18.104;2024-03-02T08:03:00;11.16;74.86
79494;SHT31;68951;53.130;18.104;2024-03-02T08:05:27;11.28;74.70
79494;SHT31;68951;53.130;18.104;2024-03-02T08:07:54;11.31;74.49
79494;SHT31;68951;53.130;18.104;2024-03-02T08:10:21;11.37;74.37
79494;SHT31;68951;53.130;18.104;2024-03-02T08:12:48;11.50;74.28
79494;SHT31;68951;53.130;18.104;2024-03-02T08:15:15;11.62;74.17
79494;SHT31;68951;53.130;18.104;2024-03-02T08:17:43;11.66;74.03
79494;SHT31;68951;53.130;18.104;2024-03-02T08:20:15;11.71;73.86
79494;SHT31;68951;53.130;18.104;2024-03-02T08:22:42;11.77;73.74
79494;SHT31;68951;53.130;18.104;2024-03-02T08:25:09;11.79;73.56
79494;SHT31;68951;53.130;18.104;2024-03-02T08:27:36;11.89;73.49
79494;SHT31;68951;53.130;18.104;2024-03-02T08:30:04;12.06;73.40
79494;SHT31;68951;53.130;18.104;2024-03-02T08:32:33;12.20;73.26
79494;SHT31;68951;53.130;18.104;2024-03-02T08:34:59;12.28;73.05
79494;SHT31;68951;53.130;18.104;2024-03-02T08:37:26;12.42;72.89
79494;SHT31;68951;53.130;18.104;2024-03-02T08:39:53;12.50;72.71
79494;SHT31;68951;53.130;18.104;2024-03-02T08:42:20;12.55;72.52
79494;SHT31;68951;53.130;18.104;2024-03-02T08:44:48;12.60;72.34
79494;SHT31;68951;53.130;18.104;2024-03-02T08:47:16;12.67;72.12
79494;SHT31;68951;53.130;18.104;2024-03-02T08:49:43;12.73;71.94
79494;SHT31;68951;53.130;18.104;2024-03-02T08:52:10;12.76;71.79
79494;SHT31;68951;53.130;18.104;2024-03-02T08:54:37;12.77;71.65
79494;SHT31;68951;53.130;18.104;2024-03-02T08:57:04;12.67;71.46
79494;SHT31;68951;53.130;18.104;2024-03-02T08:59:32;12.62;71.36
79494;SHT31;68951;53.130;18.104;2024-03-02T09:01:59;12.57;71.24
79494;SHT31;68951;53.130;18.104;2024-03-02T09:04:28;12.54;71.15
79494;SHT31;68951;53.130;18.104;2024-03-02T09:06:55;12.59;71.12
79494;SHT31;68951;53.130;18.104;2024-03-02T09:09:22;12.67;71.05
79494;SHT31;68951;53.130;18.104;2024-03-02T09:11:51;12.78;70.93
79494;SHT31;68951;53.130;18.104;2024-03-02T09:14:21;12.82;70.73
79494;SHT31;68951;53.130;18.104;2024-03-02T09:16:48;12.89;70.60
79494;SHT31;68951;53.130;18.104;2024-03-02T09:19:15;13.05;70.55
79494;SHT31;68951;53.130;18.104;2024-03-02T09:21:43;13.25;70.46
79494;SHT31;68951;53.130;18.104;2024-03-02T09:24:10;13.38;70.31
79494;SHT31;68951;53.130;18.104;2024-03-02T09:26:37;13.41;70.05
79494;SHT31;68951;53.130;18.104;2024-03-02T09:29:04;13.29;69.76
79494;SHT31;68951;53.130;18.104;2024-03-02T09:31:30;13.24;69.62
79494;SHT31;68951;53.130;18.104;2024-03-02T09:33:57;13.36;69.60
79494;SHT31;68951;53.130;18.104;2024-03-02T09:36:24;13.57;69.48
79494;SHT31;68951;53.130;18.104;2024-03-02T09:38:51;13.72;69.31
79494;SHT31;68951;53.130;18.104;2024-03-02T09:41:18;13.82;69.11
79494;SHT31;68951;53.130;18.104;2024-03-02T09:43:45;13.87;68.87
79494;SHT31;68951;53.130;18.104;2024-03-02T09:46:12;13.93;68.72
79494;SHT31;68951;53.130;18.104;2024-03-02T09:48:39;14.05;68.57
79494;SHT31;68951;53.130;18.104;2024-03-02T09:51:06;14.27;68.36
79494;SHT31;68951;53.130;18.104;2024-03-02T09:53:34;14.56;68.23
79494;SHT31;68951;53.130;18.104;2024-03-02T09:56:01;14.66;67.88
79494;SHT31;68951;53.130;18.104;2024-03-02T09:58:28;14.72;67.61
79494;SHT31;68951;53.130;18.104;2024-03-02T10:00:55;14.73;67.35
79494;SHT31;68951;53.130;18.104;2024-03-02T10:03:23;14.73;67.05
79494;SHT31;68951;53.130;18.104;2024-03-02T10:05:53;14.82;66.82
79494;SHT31;68951;53.130;18.104;2024-03-02T10:08:20;15.14;66.61
79494;SHT31;68951;53.130;18.104;2024-03-02T10:10:46;15.48;66.36
79494;SHT31;68951;53.130;18.104;2024-03-02T10:13:13;15.65;65.99
79494;SHT31;68951;53.130;18.104;2024-03-02T10:15:40;15.66;65.55
79494;SHT31;68951;53.130;18.104;2024-03-02T10:18:08;15.72;65.25
79494;SHT31;68951;53.130;18.104;2024-03-02T10:20:40;15.87;65.06
79494;SHT31;68951;53.130;18.104;2024-03-02T10:25:44;16.88;64.56
79494;SHT31;68951;53.130;18.104;2024-03-02T10:28:11;17.27;64.01
79494;SHT31;68951;53.130;18.104;2024-03-02T10:30:38;17.66;63.44
79494;SHT31;68951;53.130;18.104;2024-03-02T10:33:05;18.03;62.81
79494;SHT31;68951;53.130;18.104;2024-03-02T10:35:33;18.40;62.31
79494;SHT31;68951;53.130;18.104;2024-03-02T10:38:03;18.76;61.79
79494;SHT31;68951;53.130;18.104;2024-03-02T10:40:32;19.06;61.20
79494;SHT31;68951;53.130;18.104;2024-03-02T10:43:00;19.24;60.55
79494;SHT31;68951;53.130;18.104;2024-03-02T10:45:29;19.40;60.07
79494;SHT31;68951;53.130;18.104;2024-03-02T10:47:57;19.64;59.53
79494;SHT31;68951;53.130;18.104;2024-03-02T10:50:24;19.63;58.85
79494;SHT31;68951;53.130;18.104;2024-03-02T10:52:51;19.49;58.29
79494;SHT31;68951;53.130;18.104;2024-03-02T10:55:18;19.40;57.95
79494;SHT31;68951;53.130;18.104;2024-03-02T10:57:52;19.70;57.74
79494;SHT31;68951;53.130;18.104;2024-03-02T11:00:20;20.05;57.35
79494;SHT31;68951;53.130;18.104;2024-03-02T11:02:56;20.35;56.87
79494;SHT31;68951;53.130;18.104;2024-03-02T11:05:33;20.86;56.38
79494;SHT31;68951;53.130;18.104;2024-03-02T11:08:06;21.20;55.71
79494;SHT31;68951;53.130;18.104;2024-03-02T11:10:47;21.53;55.10
79494;SHT31;68951;53.130;18.104;2024-03-02T11:13:33;21.91;54.43
79494;SHT31;68951;53.130;18.104;2024-03-02T11:16:05;22.10;53.68
79494;SHT31;68951;53.130;18.104;2024-03-02T11:18:39;22.13;52.99
79494;SHT31;68951;53.130;18.104;2024-03-02T11:21:07;22.35;52.57
79494;SHT31;68951;53.130;18.104;2024-03-02T11:23:35;22.59;52.14
79494;SHT31;68951;53.130;18.104;2024-03-02T11:26:17;22.74;51.64
79494;SHT31;68951;53.130;18.104;2024-03-02T11:28:50;22.85;50.99
79494;SHT31;68951;53.130;18.104;2024-03-02T11:31:17;22.86;50.44
79494;SHT31;68951;53.130;18.104;2024-03-02T11:33:44;22.72;50.00
79494;SHT31;68951;53.130;18.104;2024-03-02T11:36:11;22.84;49.71
79494;SHT31;68951;53.130;18.104;2024-03-02T11:38:37;23.00;49.34
79494;SHT31;68951;53.130;18.104;2024-03-02T11:41:07;23.07;48.98
79494;SHT31;68951;53.130;18.104;2024-03-02T11:43:38;23.20;48.57
79494;SHT31;68951;53.130;18.104;2024-03-02T11:46:10;23.49;48.20
79494;SHT31;68951;53.130;18.104;2024-03-02T11:48:38;23.69;47.67
79494;SHT31;68951;53.130;18.104;2024-03-02T11:51:06;23.87;47.27
79494;SHT31;68951;53.130;18.104;2024-03-02T11:53:32;24.30;46.97
79494;SHT31;68951;53.130;18.104;2024-03-02T11:56:01;24.54;46.41
79494;SHT31;68951;53.130;18.104;2024-03-02T11:58:29;24.69;45.98
79494;SHT31;68951;53.130;18.104;2024-03-02T12:00:56;24.75;45.53
79494;SHT31;68951;53.130;18.104;2024-03-02T12:03:24;24.91;45.76
79494;SHT31;68951;53.130;18.104;2024-03-02T12:05:52;25.14;45.68
79494;SHT31;68951;53.130;18.104;2024-03-02T12:08:20;25.57;45.62
79494;SHT31;68951;53.130;18.104;2024-03-02T12:10:58;26.10;45.04
79494;SHT31;68951;53.130;18.104;2024-03-02T12:13:26;26.10;44.22
79494;SHT31;68951;53.130;18.104;2024-03-02T12:15:54;26.28;44.01
79494;SHT31;68951;53.130;18.104;2024-03-02T12:18:22;26.59;43.68
79494;SHT31;68951;53.130;18.104;2024-03-02T12:20:50;26.85;43.29
79494;SHT31;68951;53.130;18.104;2024-03-02T12:23:19;26.87;42.96
79494;SHT31;68951;53.130;18.104;2024-03-02T12:25:46;26.85;42.96
79494;SHT31;68951;53.130;18.104;2024-03-02T12:28:13;26.69;42.64
79494;SHT31;68951;53.130;18.104;2024-03-02T12:30:40;26.41;42.42
79494;SHT31;68951;53.130;18.104;2024-03-02T12:33:11;26.61;42.22
79494;SHT31;68951;53.130;18.104;2024-03-02T12:35:38;26.32;41.82
79494;SHT31;68951;53.130;18.104;2024-03-02T12:38:05;25.88;41.57
79494;SHT31;68951;53.130;18.104;2024-03-02T12:40:32;25.43;41.53
79494;SHT31;68951;53.130;18.104;2024-03-02T12:42:59;25.11;41.49
79494;SHT31;68951;53.130;18.104;2024-03-02T12:45:27;24.87;41.51
79494;SHT31;68951;53.130;18.104;2024-03-02T12:47:53;24.54;41.60
79494;SHT31;68951;53.130;18.104;2024-03-02T12:50:21;24.49;41.60
79494;SHT31;68951;53.130;18.104;2024-03-02T12:52:52;24.16;41.72
79494;SHT31;68951;53.130;18.104;2024-03-02T12:55:22;23.64;41.79
79494;SHT31;68951;53.130;18.104;2024-03-02T12:57:50;23.07;41.92
79494;SHT31;68951;53.130;18.104;2024-03-02T13:00:19;22.51;42.18
79494;SHT31;68951;53.130;18.104;2024-03-02T13:02:48;22.03;42.47
79494;SHT31;68951;53.130;18.104;2024-03-02T13:05:16;21.74;42.82
79494;SHT31;68951;53.130;18.104;2024-03-02T13:07:44;21.53;43.14
79494;SHT31;68951;53.130;18.104;2024-03-02T13:10:13;21.30;43.43
79494;SHT31;68951;53.130;18.104;2024-03-02T13:12:40;21.04;43.70
79494;SHT31;68951;53.130;18.104;2024-03-02T13:15:08;20.90;43.94
79494;SHT31;68951;53.130;18.104;2024-03-02T13:17:35;20.80;44.23
79494;SHT31;68951;53.130;18.104;2024-03-02T13:20:02;20.50;44.49
79494;SHT31;68951;53.130;18.104;2024-03-02T13:22:36;20.21;44.81
79494;SHT31;68951;53.130;18.104;2024-03-02T13:25:04;20.05;45.16
79494;SHT31;68951;53.130;18.104;2024-03-02T13:27:31;19.92;45.49
79494;SHT31;68951;53.130;18.104;2024-03-02T13:29:59;19.72;45.80
79494;SHT31;68951;53.130;18.104;2024-03-02T13:32:28;19.43;46.16
79494;SHT31;68951;53.130;18.104;2024-03-02T13:34:55;19.42;46.48
79494;SHT31;68951;53.130;18.104;2024-03-02T13:37:21;19.47;46.84
79494;SHT31;68951;53.130;18.104;2024-03-02T13:39:48;19.48;47.18
79494;SHT31;68951;53.130;18.104;2024-03-02T13:42:15;19.40;47.46
79494;SHT31;68951;53.130;18.104;2024-03-02T13:44:43;19.37;47.76
79494;SHT31;68951;53.130;18.104;2024-03-02T13:47:13;19.42;47.99
79494;SHT31;68951;53.130;18.104;2024-03-02T13:49:40;19.36;48.21
79494;SHT31;68951;53.130;18.104;2024-03-02T13:52:11;19.29;48.40
79494;SHT31;68951;53.130;18.104;2024-03-02T13:54:44;19.33;48.66
79494;SHT31;68951;53.130;18.104;2024-03-02T13:57:12;19.41;48.78
79494;SHT31;68951;53.130;18.104;2024-03-02T13:59:40;19.47;48.82
79494;SHT31;68951;53.130;18.104;2024-03-02T14:02:09;19.46;48.94
79494;SHT31;68951;53.130;18.104;2024-03-02T14:04:36;19.40;49.00
79494;SHT31;68951;53.130;18.104;2024-03-02T14:07:04;19.20;49.12
79494;SHT31;68951;53.130;18.104;2024-03-02T14:09:34;19.11;49.35
79494;SHT31;68951;53.130;18.104;2024-03-02T14:12:01;18.91;49.59
79494;SHT31;68951;53.130;18.104;2024-03-02T14:14:29;18.71;49.84
79494;SHT31;68951;53.130;18.104;2024-03-02T14:16:56;18.45;50.10
79494;SHT31;68951;53.130;18.104;2024-03-02T14:19:26;18.16;50.29
79494;SHT31;68951;53.130;18.104;2024-03-02T14:21:53;17.89;50.47
79494;SHT31;68951;53.130;18.104;2024-03-02T14:24:20;17.55;50.65
79494;SHT31;68951;53.130;18.104;2024-03-02T14:26:50;17.23;50.91
79494;SHT31;68951;53.130;18.104;2024-03-02T14:29:17;16.97;51.14
79494;SHT31;68951;53.130;18.104;2024-03-02T14:31:44;16.73;51.45
79494;SHT31;68951;53.130;18.104;2024-03-02T14:34:14;16.52;51.78
79494;SHT31;68951;53.130;18.104;2024-03-02T14:36:41;16.33;52.09
79494;SHT31;68951;53.130;18.104;2024-03-02T14:39:10;16.15;52.39
79494;SHT31;68951;53.130;18.104;2024-03-02T14:41:38;15.97;52.70
79494;SHT31;68951;53.130;18.104;2024-03-02T14:44:05;15.85;53.02
79494;SHT31;68951;53.130;18.104;2024-03-02T14:46:34;15.70;53.31
79494;SHT31;68951;53.130;18.104;2024-03-02T14:49:01;15.57;53.57
79494;SHT31;68951;53.130;18.104;2024-03-02T14:51:28;15.42;53.90
79494;SHT31;68951;53.130;18.104;2024-03-02T14:53:56;15.29;54.18
79494;SHT31;68951;53.130;18.104;2024-03-02T14:56:23;15.13;54.51
79494;SHT31;68951;53.130;18.104;2024-03-02T14:58:50;14.99;54.82
79494;SHT31;68951;53.130;18.104;2024-03-02T15:01:17;14.88;55.13
79494;SHT31;68951;53.130;18.104;2024-03-02T15:03:44;14.70;55.51
79494;SHT31;68951;53.130;18.104;2024-03-02T15:06:11;14.60;55.82
79494;SHT31;68951;53.130;18.104;2024-03-02T15:08:38;14.50;56.10
79494;SHT31;68951;53.130;18.104;2024-03-02T15:11:07;14.44;56.34
79494;SHT31;68951;53.130;18.104;2024-03-02T15:13:35;14.39;56.62
79494;SHT31;68951;53.130;18.104;2024-03-02T15:16:02;14.34;56.83
79494;SHT31;68951;53.130;18.104;2024-03-02T15:18:30;14.26;57.06
79494;SHT31;68951;53.130;18.104;2024-03-02T15:20:57;14.18;57.28
79494;SHT31;68951;53.130;18.104;2024-03-02T15:23:24;14.12;57.52
79494;SHT31;68951;53.130;18.104;2024-03-02T15:25:50;14.06;57.72
79494;SHT31;68951;53.130;18.104;2024-03-02T15:28:17;14.00;57.96
79494;SHT31;68951;53.130;18.104;2024-03-02T15:30:45;13.91;58.19
79494;SHT31;68951;53.130;18.104;2024-03-02T15:33:11;13.84;58.40
79494;SHT31;68951;53.130;18.104;2024-03-02T15:35:38;13.74;58.62
79494;SHT31;68951;53.130;18.104;2024-03-02T15:38:05;13.66;58.83
79494;SHT31;68951;53.130;18.104;2024-03-02T15:40:33;13.59;59.06